createdAt,value
2023-05-01T00:01:55.200Z,7.00
2023-05-01T00:04:22.556Z,7.10
2023-05-01T00:06:49.382Z,7.00
2023-05-01T00:09:16.234Z,6.84
2023-05-01T00:11:42.876Z,7.05
2023-05-01T00:14:09.532Z,7.31
2023-05-01T00:16:36.593Z,7.37
2023-05-01T00:19:04.043Z,7.61
2023-05-01T00:21:31.007Z,7.51
2023-05-01T00:23:57.690Z,7.50
2023-05-01T00:26:27.070Z,7.27
2023-05-01T00:28:54.236Z,7.50
2023-05-01T00:31:20.991Z,7.35
2023-05-01T00:33:47.651Z,7.19
2023-05-01T00:36:14.692Z,7.27
2023-05-01T00:38:41.326Z,7.46
2023-05-01T00:41:08.097Z,7.52
2023-05-01T00:43:35.330Z,7.41
2023-05-01T00:46:02.055Z,7.31
2023-05-01T00:48:28.789Z,7.26
2023-05-01T00:50:56.430Z,7.40
2023-05-01T00:53:24.436Z,7.67
2023-05-01T00:55:51.361Z,7.54
2023-05-01T00:58:18.768Z,7.55
2023-05-01T01:00:45.595Z,7.44
2023-05-01T01:03:12.322Z,7.49
2023-05-01T01:06:08.510Z,7.78
2023-05-01T01:08:37.850Z,7.50
2023-05-01T01:11:26.013Z,7.68
2023-05-01T01:14:05.938Z,7.67
2023-05-01T01:16:55.175Z,7.71
2023-05-01T01:19:43.746Z,7.62
2023-05-01T01:22:15.883Z,7.58
2023-05-01T01:25:08.959Z,7.59
2023-05-01T01:27:41.695Z,7.79
2023-05-01T01:30:39.656Z,7.74
2023-05-01T01:33:24.679Z,7.58
2023-05-01T01:36:01.035Z,7.46
2023-05-01T01:38:37.810Z,7.48
2023-05-01T01:41:10.418Z,7.58
2023-05-01T01:43:44.121Z,7.41
2023-05-01T01:46:11.319Z,7.47
2023-05-01T01:48:43.311Z,7.46
2023-05-01T01:51:12.747Z,7.61
2023-05-01T01:53:41.064Z,7.47
2023-05-01T01:56:08.877Z,7.51
2023-05-01T01:58:36.957Z,7.53
2023-05-01T02:01:04.354Z,7.82
2023-05-01T02:03:31.467Z,7.65
2023-05-01T02:05:58.664Z,7.50
2023-05-01T02:08:25.890Z,7.56
2023-05-01T02:10:58.857Z,7.58
2023-05-01T02:13:28.998Z,7.51
2023-05-01T02:15:59.782Z,7.39
2023-05-01T02:18:31.101Z,7.65
2023-05-01T02:20:59.758Z,7.54
2023-05-01T02:23:28.671Z,7.53
2023-05-01T02:25:56.833Z,7.36
2023-05-01T02:28:24.857Z,7.52
2023-05-01T02:30:52.669Z,7.51
2023-05-01T02:33:20.334Z,7.53
2023-05-01T02:35:49.937Z,7.41
2023-05-01T02:38:18.614Z,7.61
2023-05-01T02:40:50.872Z,7.67
2023-05-01T02:43:20.237Z,7.61
2023-05-01T02:45:47.976Z,7.48
2023-05-01T02:48:18.792Z,7.44
2023-05-01T02:50:46.197Z,7.77
2023-05-01T02:53:13.588Z,7.77
2023-05-01T02:55:48.092Z,7.79
2023-05-01T02:58:16.181Z,7.74
2023-05-01T03:00:43.209Z,7.71
2023-05-01T03:03:09.910Z,7.63
2023-05-01T03:05:36.647Z,7.56
2023-05-01T03:08:04.225Z,7.46
2023-05-01T03:10:31.301Z,7.57
2023-05-01T03:12:57.967Z,7.45
2023-05-01T03:15:24.601Z,7.69
2023-05-01T03:17:51.238Z,7.68
2023-05-01T03:20:17.954Z,7.41
2023-05-01T03:22:44.649Z,7.41
2023-05-01T03:25:11.319Z,7.39
2023-05-01T03:27:38.152Z,7.22
2023-05-01T03:30:05.295Z,7.38
2023-05-01T03:32:37.027Z,7.28
2023-05-01T03:35:05.334Z,7.36
2023-05-01T03:37:32.631Z,7.33
2023-05-01T03:39:59.875Z,7.42
2023-05-01T03:42:44.960Z,7.44
2023-05-01T03:45:19.244Z,7.38
2023-05-01T03:47:45.938Z,7.24
2023-05-01T03:50:14.606Z,7.20
2023-05-01T03:52:43.245Z,7.12
2023-05-01T03:55:10.110Z,6.88
2023-05-01T03:57:47.568Z,6.82
2023-05-01T04:00:15.010Z,6.88
2023-05-01T04:02:46.344Z,7.03
2023-05-01T04:05:18.392Z,7.37
2023-05-01T04:07:50.115Z,7.29
2023-05-01T04:10:17.525Z,7.12
2023-05-01T04:12:52.193Z,7.24
2023-05-01T04:15:18.908Z,7.24
2023-05-01T04:17:46.230Z,7.27
2023-05-01T04:20:12.956Z,7.27
2023-05-01T04:22:40.196Z,7.22
2023-05-01T04:25:08.845Z,7.26
2023-05-01T04:27:35.682Z,7.37
2023-05-01T04:30:02.375Z,7.36
2023-05-01T04:32:30.684Z,7.36
2023-05-01T04:34:57.941Z,7.24
2023-05-01T04:37:24.802Z,7.35
2023-05-01T04:39:51.770Z,7.44
2023-05-01T04:42:20.550Z,7.86
2023-05-01T04:44:47.380Z,8.60
2023-05-01T04:47:14.441Z,8.54
2023-05-01T04:49:41.062Z,8.57
2023-05-01T04:52:08.055Z,8.66
2023-05-01T04:55:00.682Z,8.70
2023-05-01T04:57:30.303Z,8.89
2023-05-01T04:59:57.271Z,8.77
2023-05-01T05:02:24.935Z,9.00
2023-05-01T05:04:53.915Z,8.87
2023-05-01T05:07:21.176Z,8.93
2023-05-01T05:10:08.359Z,8.98
2023-05-01T05:12:35.763Z,9.27
2023-05-01T05:15:03.310Z,9.73
2023-05-01T05:17:30.907Z,9.98
2023-05-01T05:19:57.868Z,9.88
2023-05-01T05:22:26.140Z,9.44
2023-05-01T05:25:18.884Z,9.71
2023-05-01T05:27:45.576Z,9.94
2023-05-01T05:30:12.509Z,9.73
2023-05-01T05:32:39.331Z,9.99
2023-05-01T05:35:06.564Z,9.88
2023-05-01T05:37:33.295Z,9.83
2023-05-01T05:40:00.490Z,10.29
2023-05-01T05:42:29.334Z,10.26
2023-05-01T05:44:59.507Z,10.09
2023-05-01T05:47:26.417Z,10.47
2023-05-01T05:49:53.435Z,10.14
2023-05-01T05:52:20.326Z,10.27
2023-05-01T05:54:47.652Z,10.40
2023-05-01T05:57:14.371Z,10.97
2023-05-01T05:59:46.604Z,11.27
2023-05-01T06:02:14.989Z,12.11
2023-05-01T06:04:41.796Z,12.35
2023-05-01T06:07:08.515Z,12.48
2023-05-01T06:09:35.764Z,12.51
2023-05-01T06:12:02.506Z,11.87
2023-05-01T06:14:30.628Z,11.43
2023-05-01T06:16:57.308Z,11.27
2023-05-01T06:19:23.963Z,11.29
2023-05-01T06:21:56.185Z,12.21
2023-05-01T06:24:22.855Z,12.21
2023-05-01T06:26:52.250Z,12.59
2023-05-01T06:29:18.875Z,12.66
2023-05-01T06:31:45.751Z,12.74
2023-05-01T06:34:13.000Z,13.16
2023-05-01T06:36:52.740Z,12.98
2023-05-01T06:39:19.688Z,13.09
2023-05-01T06:41:47.616Z,12.91
2023-05-01T06:44:15.975Z,12.82
2023-05-01T06:46:42.797Z,12.51
2023-05-01T06:49:09.554Z,12.22
2023-05-01T06:51:36.480Z,12.53
2023-05-01T06:54:03.167Z,12.38
2023-05-01T06:56:29.841Z,12.48
2023-05-01T06:58:56.503Z,12.51
2023-05-01T07:01:23.376Z,12.71
2023-05-01T07:03:50.153Z,12.85
2023-05-01T07:06:16.778Z,13.18
2023-05-01T07:08:43.484Z,13.47
2023-05-01T07:11:10.125Z,13.76
2023-05-01T07:13:37.543Z,13.53
2023-05-01T07:16:04.522Z,13.66
2023-05-01T07:18:31.133Z,13.56
2023-05-01T07:20:57.790Z,14.01
2023-05-01T07:23:25.510Z,13.79
2023-05-01T07:25:54.842Z,13.72
2023-05-01T07:28:22.272Z,13.43
2023-05-01T07:30:48.993Z,13.55
2023-05-01T07:33:16.512Z,13.31
2023-05-01T07:35:43.327Z,13.84
2023-05-01T07:38:10.026Z,13.93
2023-05-01T07:40:36.873Z,14.49
2023-05-01T07:43:04.285Z,14.94
2023-05-01T07:45:30.975Z,15.11
2023-05-01T07:47:57.685Z,15.04
2023-05-01T07:50:25.907Z,14.80
2023-05-01T07:52:52.811Z,15.03
2023-05-01T07:55:19.572Z,14.31
2023-05-01T07:57:46.437Z,14.95
2023-05-01T08:00:13.818Z,15.68
2023-05-01T08:02:44.008Z,15.47
2023-05-01T08:05:10.804Z,15.42
2023-05-01T08:07:37.368Z,15.55
2023-05-01T08:10:04.357Z,15.18
2023-05-01T08:12:31.468Z,15.14
2023-05-01T08:14:58.228Z,15.14
2023-05-01T08:17:24.996Z,15.34
2023-05-01T08:19:53.927Z,15.84
2023-05-01T08:22:20.851Z,15.60
2023-05-01T08:24:47.565Z,15.48
2023-05-01T08:27:14.240Z,14.93
2023-05-01T08:29:40.996Z,15.31
2023-05-01T08:32:15.462Z,14.96
2023-05-01T08:34:44.205Z,15.12
2023-05-01T08:37:16.425Z,15.42
2023-05-01T08:39:46.773Z,15.85
2023-05-01T08:42:13.719Z,15.55
2023-05-01T08:44:47.913Z,15.79
2023-05-01T08:47:24.001Z,15.44
2023-05-01T08:53:12.310Z,15.68
2023-05-01T08:55:40.698Z,15.56
2023-05-01T08:58:10.558Z,15.45
2023-05-01T09:00:38.267Z,15.61
2023-05-01T09:03:05.739Z,15.64
2023-05-01T09:05:34.638Z,15.82
2023-05-01T09:08:05.047Z,15.79
2023-05-01T09:10:33.299Z,15.99
2023-05-01T09:13:08.700Z,16.12
2023-05-01T09:15:38.592Z,15.92
2023-05-01T09:18:05.407Z,16.33
2023-05-01T09:20:32.557Z,16.10
2023-05-01T09:23:11.496Z,16.50
2023-05-01T09:25:47.322Z,16.35
2023-05-01T09:28:14.057Z,16.18
2023-05-01T09:33:27.791Z,16.44
2023-05-01T09:35:56.167Z,16.30
2023-05-01T09:38:36.008Z,16.90
2023-05-01T09:41:53.024Z,16.81
2023-05-01T09:48:14.620Z,16.91
2023-05-01T09:50:49.951Z,17.10
2023-05-01T09:53:16.739Z,17.55
2023-05-01T09:55:43.538Z,17.44
2023-05-01T09:58:27.568Z,17.53
2023-05-01T10:01:02.048Z,16.88
2023-05-01T10:03:29.213Z,17.14
2023-05-01T10:05:56.985Z,17.29
2023-05-01T10:08:24.200Z,16.88
2023-05-01T10:11:03.463Z,16.31
2023-05-01T10:13:33.320Z,17.01
2023-05-01T10:16:07.363Z,17.42
2023-05-01T10:18:35.524Z,17.40
2023-05-01T10:21:06.199Z,17.62
2023-05-01T10:23:33.321Z,17.80
2023-05-01T10:26:02.964Z,17.74
2023-05-01T10:28:30.629Z,17.52
2023-05-01T10:31:06.662Z,17.68
2023-05-01T10:33:33.425Z,17.86
2023-05-01T10:36:00.962Z,18.09
2023-05-01T10:38:47.274Z,17.80
2023-05-01T10:41:58.513Z,17.22
2023-05-01T10:44:27.223Z,17.33
2023-05-01T10:46:58.337Z,16.94
2023-05-01T10:49:25.946Z,17.22
2023-05-01T10:51:59.553Z,17.37
2023-05-01T10:54:36.393Z,17.33
2023-05-01T10:57:03.573Z,17.21
2023-05-01T11:00:05.195Z,17.22
2023-05-01T11:02:32.012Z,17.25
2023-05-01T11:04:59.001Z,17.39
2023-05-01T11:07:27.183Z,17.08
2023-05-01T11:09:56.226Z,17.30
2023-05-01T11:12:51.870Z,17.37
2023-05-01T11:15:32.723Z,17.32
2023-05-01T11:18:03.643Z,17.32
2023-05-01T11:20:30.334Z,17.31
2023-05-01T11:22:57.505Z,17.32
2023-05-01T11:25:30.642Z,17.85
2023-05-01T11:28:02.201Z,17.58
2023-05-01T11:30:39.108Z,17.67
2023-05-01T11:33:07.122Z,17.88
2023-05-01T11:35:36.341Z,17.70
2023-05-01T11:38:02.969Z,17.67
2023-05-01T11:40:31.802Z,17.81
2023-05-01T11:43:08.149Z,17.72
2023-05-01T11:45:37.342Z,17.53
2023-05-01T11:48:05.189Z,17.81
2023-05-01T11:50:38.872Z,17.88
2023-05-01T11:53:15.986Z,17.92
2023-05-01T11:55:43.460Z,17.87
2023-05-01T11:58:10.199Z,18.12
2023-05-01T12:00:39.534Z,18.09
2023-05-01T12:03:08.846Z,17.82
2023-05-01T12:05:38.481Z,18.19
2023-05-01T12:08:11.612Z,18.52
2023-05-01T12:10:40.447Z,18.10
2023-05-01T12:13:08.240Z,18.54
2023-05-01T12:15:38.883Z,18.46
2023-05-01T12:18:06.044Z,18.05
2023-05-01T12:20:44.157Z,17.97
2023-05-01T12:23:12.731Z,18.08
2023-05-01T12:25:40.136Z,18.23
2023-05-01T12:28:19.032Z,18.03
2023-05-01T12:30:51.931Z,18.20
2023-05-01T12:33:20.157Z,17.85
2023-05-01T12:35:48.832Z,18.16
2023-05-01T12:38:23.659Z,18.32
2023-05-01T12:40:58.241Z,18.33
2023-05-01T12:43:36.092Z,18.16
2023-05-01T12:46:06.970Z,19.00
2023-05-01T12:48:39.068Z,19.60
2023-05-01T12:51:06.227Z,19.62
2023-05-01T12:53:33.499Z,19.69
2023-05-01T12:56:01.283Z,19.33
2023-05-01T12:58:37.706Z,19.08
2023-05-01T13:01:04.855Z,19.35
2023-05-01T13:03:33.405Z,19.25
2023-05-01T13:06:02.127Z,19.56
2023-05-01T13:08:33.856Z,20.02
2023-05-01T13:11:03.926Z,19.54
2023-05-01T13:13:33.478Z,19.44
2023-05-01T13:16:06.616Z,19.15
2023-05-01T13:18:33.936Z,19.10
2023-05-01T13:21:08.796Z,19.35
2023-05-01T13:23:39.485Z,19.47
2023-05-01T13:26:07.297Z,19.93
2023-05-01T13:28:42.546Z,20.19
2023-05-01T13:31:13.329Z,20.27
2023-05-01T13:33:43.586Z,20.59
2023-05-01T13:36:24.391Z,20.85
2023-05-01T13:38:55.708Z,20.93
2023-05-01T13:41:24.958Z,20.76
2023-05-01T13:43:53.335Z,20.38
2023-05-01T13:46:22.037Z,20.77
2023-05-01T13:48:49.281Z,20.61
2023-05-01T13:51:23.213Z,20.55
2023-05-01T13:53:50.570Z,20.22
2023-05-01T13:56:17.572Z,20.15
2023-05-01T13:58:45.996Z,19.91
2023-05-01T14:01:19.092Z,19.85
2023-05-01T14:03:46.614Z,19.74
2023-05-01T14:06:53.011Z,20.27
2023-05-01T14:09:59.959Z,20.20
2023-05-01T14:12:52.005Z,20.20
2023-05-01T14:15:19.013Z,20.27
2023-05-01T14:18:26.415Z,20.05
2023-05-01T14:20:55.740Z,19.57
2023-05-01T14:23:48.149Z,18.97
2023-05-01T14:26:29.790Z,19.32
2023-05-01T14:28:56.508Z,19.54
2023-05-01T14:31:43.396Z,19.85
2023-05-01T14:34:10.420Z,19.73
2023-05-01T14:36:37.289Z,20.07
2023-05-01T14:39:12.510Z,20.21
2023-05-01T14:41:42.621Z,19.88
2023-05-01T14:44:15.361Z,19.65
2023-05-01T14:46:52.193Z,19.59
2023-05-01T14:49:24.376Z,19.33
2023-05-01T14:51:52.580Z,18.84
2023-05-01T14:54:20.832Z,18.85
2023-05-01T14:56:48.640Z,19.11
2023-05-01T14:59:32.302Z,19.18
2023-05-01T15:02:25.523Z,19.26
2023-05-01T15:05:33.977Z,19.54
2023-05-01T15:08:22.317Z,19.83
2023-05-01T15:11:18.738Z,19.64
2023-05-01T15:13:50.438Z,19.48
2023-05-01T15:16:27.991Z,19.37
2023-05-01T15:18:59.589Z,19.23
2023-05-01T15:21:45.098Z,19.03
2023-05-01T15:36:43.906Z,20.22
2023-05-01T15:39:16.274Z,20.23
2023-05-01T15:41:43.274Z,20.12
2023-05-01T15:44:11.157Z,19.74
2023-05-01T15:46:38.375Z,19.50
2023-05-01T15:49:08.166Z,19.35
2023-05-01T15:51:34.997Z,19.15
2023-05-01T15:54:03.031Z,18.84
2023-05-01T15:56:29.953Z,19.00
2023-05-01T15:58:56.885Z,19.09
2023-05-01T16:01:23.877Z,19.55
2023-05-01T16:03:50.819Z,19.56
2023-05-01T16:06:17.621Z,19.75
2023-05-01T16:08:44.600Z,19.96
2023-05-01T16:11:12.581Z,20.13
2023-05-01T16:13:42.029Z,19.93
2023-05-01T16:16:14.460Z,19.76
2023-05-01T16:18:42.025Z,19.46
2023-05-01T16:21:12.238Z,19.14
2023-05-01T16:23:39.628Z,19.24
2023-05-01T16:26:06.545Z,19.07
2023-05-01T16:28:36.238Z,18.63
2023-05-01T16:31:06.472Z,18.51
2023-05-01T16:33:41.399Z,18.47
2023-05-01T16:36:11.227Z,18.53
2023-05-01T16:38:39.404Z,18.31
2023-05-01T16:41:08.635Z,18.15
2023-05-01T16:43:35.784Z,17.99
2023-05-01T16:46:03.529Z,18.00
2023-05-01T16:48:31.694Z,17.93
2023-05-01T16:51:01.155Z,18.13
2023-05-01T16:53:27.923Z,17.72
2023-05-01T16:55:54.667Z,17.40
2023-05-01T16:58:21.377Z,17.28
2023-05-01T17:00:48.025Z,17.17
2023-05-01T17:03:21.014Z,17.08
2023-05-01T17:05:47.813Z,17.14
2023-05-01T17:08:14.487Z,17.04
2023-05-01T17:10:48.321Z,16.80
2023-05-01T17:13:16.901Z,16.70
2023-05-01T17:15:45.523Z,16.51
2023-05-01T17:18:12.475Z,16.37
2023-05-01T17:24:11.099Z,16.14
2023-05-01T17:26:46.833Z,15.95
2023-05-01T17:29:22.904Z,15.85
2023-05-01T17:31:50.789Z,15.77
2023-05-01T17:34:17.494Z,15.72
2023-05-01T17:36:48.838Z,15.64
2023-05-01T17:39:15.561Z,15.63
2023-05-01T17:41:42.247Z,15.58
2023-05-01T17:44:08.940Z,15.41
2023-05-01T17:46:38.854Z,15.40
2023-05-01T17:49:08.794Z,15.32
2023-05-01T17:51:38.663Z,15.23
2023-05-01T17:54:05.831Z,15.12
2023-05-01T17:56:34.660Z,15.04
2023-05-01T17:59:01.482Z,14.98
2023-05-01T18:01:28.782Z,14.80
2023-05-01T18:03:57.338Z,14.94
2023-05-01T18:06:26.643Z,14.96
2023-05-01T18:08:56.613Z,14.86
2023-05-01T18:11:23.418Z,14.83
2023-05-01T18:13:50.499Z,14.85
2023-05-01T18:16:18.684Z,14.69
2023-05-01T18:18:47.062Z,14.60
2023-05-01T18:21:14.667Z,14.48
2023-05-01T18:23:41.300Z,14.34
2023-05-01T18:26:08.218Z,14.23
2023-05-01T18:28:34.849Z,14.22
2023-05-01T18:31:01.780Z,14.16
2023-05-01T18:33:29.741Z,14.19
2023-05-01T18:35:56.463Z,14.20
2023-05-01T18:38:25.445Z,14.24
2023-05-01T18:40:53.739Z,14.21
2023-05-01T18:43:20.862Z,14.28
2023-05-01T18:45:47.642Z,14.38
2023-05-01T18:48:14.332Z,14.50
2023-05-01T18:50:42.539Z,14.51
2023-05-01T18:53:09.244Z,14.40
2023-05-01T18:55:35.933Z,14.36
2023-05-01T18:58:10.204Z,14.51
2023-05-01T19:00:36.862Z,14.45
2023-05-01T19:03:07.233Z,14.41
2023-05-01T19:05:34.029Z,14.40
2023-05-01T19:08:05.082Z,14.44
2023-05-01T19:10:31.912Z,14.23
2023-05-01T19:12:58.732Z,14.15
2023-05-01T19:15:25.471Z,14.06
2023-05-01T19:17:52.224Z,13.87
2023-05-01T19:20:18.850Z,13.66
2023-05-01T19:22:45.538Z,13.54
2023-05-01T19:25:12.207Z,13.46
2023-05-01T19:27:38.904Z,13.32
2023-05-01T19:30:06.928Z,13.16
2023-05-01T19:32:33.834Z,13.09
2023-05-01T19:35:05.151Z,12.87
2023-05-01T19:37:31.892Z,12.80
2023-05-01T19:39:58.846Z,12.70
2023-05-01T19:42:25.750Z,12.74
2023-05-01T19:44:52.616Z,12.57
2023-05-01T19:47:21.677Z,12.61
2023-05-01T19:49:48.326Z,12.49
2023-05-01T19:52:15.123Z,12.38
2023-05-01T19:54:43.796Z,12.24
2023-05-01T19:57:11.649Z,12.18
2023-05-01T19:59:41.155Z,12.12
2023-05-01T20:02:07.987Z,12.05
2023-05-01T20:04:34.805Z,11.95
2023-05-01T20:07:02.778Z,11.95
2023-05-01T20:09:29.389Z,11.92
2023-05-01T20:11:58.515Z,12.04
2023-05-01T20:14:25.158Z,11.89
2023-05-01T20:16:53.138Z,11.77
2023-05-01T20:19:19.994Z,11.67
2023-05-01T20:21:46.642Z,11.67
2023-05-01T20:24:13.335Z,11.62
2023-05-01T20:26:39.980Z,11.61
2023-05-01T20:29:06.658Z,11.51
2023-05-01T20:31:34.652Z,11.44
2023-05-01T20:34:01.385Z,11.44
2023-05-01T20:36:28.477Z,11.46
2023-05-01T20:38:57.699Z,11.49
2023-05-01T20:41:25.523Z,11.38
2023-05-01T20:43:52.504Z,11.58
2023-05-01T20:46:19.876Z,11.48
2023-05-01T20:48:48.573Z,11.45
2023-05-01T20:51:18.343Z,11.28
2023-05-01T20:53:45.012Z,11.17
2023-05-01T20:56:11.866Z,10.99
2023-05-01T20:58:38.574Z,10.93
2023-05-01T21:01:05.295Z,10.82
2023-05-01T21:03:32.677Z,10.71
2023-05-01T21:06:00.634Z,10.75
2023-05-01T21:08:27.946Z,10.57
2023-05-01T21:10:54.928Z,10.54
2023-05-01T21:13:24.595Z,10.48
2023-05-01T21:15:52.245Z,10.44
2023-05-01T21:18:20.461Z,10.53
2023-05-01T21:20:48.714Z,10.50
2023-05-01T21:23:16.916Z,10.45
2023-05-01T21:25:44.133Z,10.48
2023-05-01T21:28:12.679Z,10.52
2023-05-01T21:30:39.781Z,10.50
2023-05-01T21:33:18.167Z,10.59
2023-05-01T21:35:48.967Z,10.57
2023-05-01T21:38:16.277Z,10.61
2023-05-01T21:40:43.451Z,10.61
2023-05-01T21:43:10.206Z,10.63
2023-05-01T21:45:40.998Z,10.68
2023-05-01T21:48:08.853Z,10.75
2023-05-01T21:50:38.058Z,10.75
2023-05-01T21:53:06.716Z,10.78
2023-05-01T21:55:33.978Z,10.75
2023-05-01T21:58:01.184Z,10.74
2023-05-01T22:00:28.090Z,10.91
2023-05-01T22:02:54.826Z,10.92
2023-05-01T22:05:22.835Z,10.90
2023-05-01T22:07:52.107Z,10.89
2023-05-01T22:10:19.605Z,10.87
2023-05-01T22:12:48.784Z,10.87
2023-05-01T22:15:15.802Z,10.88
2023-05-01T22:17:42.747Z,10.99
2023-05-01T22:20:09.834Z,11.10
2023-05-01T22:22:37.865Z,11.07
2023-05-01T22:25:05.280Z,11.02
2023-05-01T22:27:32.285Z,11.06
2023-05-01T22:29:59.309Z,11.10
2023-05-01T22:32:26.288Z,11.09
2023-05-01T22:34:52.930Z,11.11
2023-05-01T22:37:19.690Z,11.26
2023-05-01T22:39:46.486Z,11.22
2023-05-01T22:42:13.285Z,11.17
2023-05-01T22:44:39.890Z,11.17
2023-05-01T22:47:07.123Z,11.08
2023-05-01T22:49:33.765Z,11.06
2023-05-01T22:52:00.390Z,11.18
2023-05-01T22:54:27.003Z,11.16
2023-05-01T22:56:53.630Z,11.12
2023-05-01T22:59:21.557Z,11.10
2023-05-01T23:01:48.692Z,11.25
2023-05-01T23:04:15.581Z,11.11
2023-05-01T23:06:43.197Z,11.09
2023-05-01T23:09:10.005Z,11.21
2023-05-01T23:11:36.681Z,11.14
2023-05-01T23:14:03.325Z,11.08
2023-05-01T23:16:32.654Z,11.07
2023-05-01T23:18:59.432Z,11.00
2023-05-01T23:21:26.100Z,11.12
2023-05-01T23:23:52.731Z,11.09
2023-05-01T23:26:32.982Z,11.13
2023-05-01T23:29:00.229Z,11.05
2023-05-01T23:31:27.819Z,11.01
2023-05-01T23:33:56.977Z,10.96
2023-05-01T23:36:23.690Z,10.97
2023-05-01T23:38:50.552Z,10.97
2023-05-01T23:41:17.231Z,10.97
2023-05-01T23:43:46.582Z,10.92
2023-05-01T23:46:13.815Z,10.86
2023-05-01T23:48:40.826Z,10.94
2023-05-01T23:51:07.521Z,10.93
2023-05-01T23:53:34.145Z,11.01
2023-05-01T23:56:00.819Z,10.96
2023-05-01T23:58:27.537Z,10.94
